sensor_id;sensor_type;location;lat;lon;timestamp;P1;durP1;ratioP1;P2;durP2;ratioP2
4409;SDS011;2218;51.408;7.208;2023-06-14T00:01:54;1.50;;;1.40;;
4409;SDS011;2218;51.408;7.208;2023-06-14T00:04:21;2.13;;;2.03;;
4409;SDS011;2218;51.408;7.208;2023-06-14T00:06:51;1.93;;;1.83;;
4409;SDS011;2218;51.408;7.208;2023-06-14T00:09:18;2.30;;;2.20;;
4409;SDS011;2218;51.408;7.208;2023-06-14T00:11:45;1.77;;;1.67;;
4409;SDS011;2218;51.408;7.208;2023-06-14T00:14:12;2.13;;;2.03;;
4409;SDS011;2218;51.408;7.208;2023-06-14T00:16:39;1.97;;;1.87;;
4409;SDS011;2218;51.408;7.208;2023-06-14T00:19:07;1.60;;;1.50;;
4409;SDS011;2218;51.408;7.208;2023-06-14T00:21:35;2.13;;;2.03;;
4409;SDS011;2218;51.408;7.208;2023-06-14T00:24:04;1.77;;;1.67;;
4409;SDS011;2218;51.408;7.208;2023-06-14T00:26:31;2.00;;;1.90;;
4409;SDS011;2218;51.408;7.208;2023-06-14T00:28:58;1.90;;;1.80;;
4409;SDS011;2218;51.408;7.208;2023-06-14T00:31:25;1.73;;;1.63;;
4409;SDS011;2218;51.408;7.208;2023-06-14T00:33:53;1.93;;;1.83;;
4409;SDS011;2218;51.408;7.208;2023-06-14T00:36:20;1.83;;;1.73;;
4409;SDS011;2218;51.408;7.208;2023-06-14T00:38:47;2.20;;;2.10;;
4409;SDS011;2218;51.408;7.208;2023-06-14T00:41:15;1.60;;;1.50;;
4409;SDS011;2218;51.408;7.208;2023-06-14T00:43:42;1.70;;;1.60;;
4409;SDS011;2218;51.408;7.208;2023-06-14T00:46:09;2.10;;;2.00;;
4409;SDS011;2218;51.408;7.208;2023-06-14T00:48:36;1.97;;;1.87;;
4409;SDS011;2218;51.408;7.208;2023-06-14T00:51:05;2.20;;;2.10;;
4409;SDS011;2218;51.408;7.208;2023-06-14T00:53:33;1.87;;;1.77;;
4409;SDS011;2218;51.408;7.208;2023-06-14T00:56:01;1.87;;;1.77;;
4409;SDS011;2218;51.408;7.208;2023-06-14T00:58:29;2.10;;;2.00;;
4409;SDS011;2218;51.408;7.208;2023-06-14T01:00:58;1.70;;;1.60;;
4409;SDS011;2218;51.408;7.208;2023-06-14T01:03:25;1.90;;;1.80;;
4409;SDS011;2218;51.408;7.208;2023-06-14T01:05:56;1.70;;;1.60;;
4409;SDS011;2218;51.408;7.208;2023-06-14T01:08:43;2.00;;;1.90;;
4409;SDS011;2218;51.408;7.208;2023-06-14T01:11:19;2.17;;;2.07;;
4409;SDS011;2218;51.408;7.208;2023-06-14T01:13:56;2.33;;;2.23;;
4409;SDS011;2218;51.408;7.208;2023-06-14T01:16:26;1.70;;;1.60;;
4409;SDS011;2218;51.408;7.208;2023-06-14T01:18:54;1.93;;;1.83;;
4409;SDS011;2218;51.408;7.208;2023-06-14T01:21:23;1.70;;;1.60;;
4409;SDS011;2218;51.408;7.208;2023-06-14T01:23:54;1.90;;;1.80;;
4409;SDS011;2218;51.408;7.208;2023-06-14T01:26:21;2.00;;;1.90;;
4409;SDS011;2218;51.408;7.208;2023-06-14T01:28:50;1.70;;;1.60;;
4409;SDS011;2218;51.408;7.208;2023-06-14T01:31:23;1.73;;;1.63;;
4409;SDS011;2218;51.408;7.208;2023-06-14T01:33:52;1.93;;;1.83;;
4409;SDS011;2218;51.408;7.208;2023-06-14T01:36:22;1.97;;;1.87;;
4409;SDS011;2218;51.408;7.208;2023-06-14T01:38:57;2.33;;;2.23;;
4409;SDS011;2218;51.408;7.208;2023-06-14T01:41:26;1.80;;;1.70;;
4409;SDS011;2218;51.408;7.208;2023-06-14T01:43:54;1.80;;;1.70;;
4409;SDS011;2218;51.408;7.208;2023-06-14T01:46:24;2.00;;;1.90;;
4409;SDS011;2218;51.408;7.208;2023-06-14T01:48:53;1.90;;;1.80;;
4409;SDS011;2218;51.408;7.208;2023-06-14T01:51:20;1.90;;;1.80;;
4409;SDS011;2218;51.408;7.208;2023-06-14T01:53:47;1.87;;;1.77;;
4409;SDS011;2218;51.408;7.208;2023-06-14T01:56:16;2.60;;;1.80;;
4409;SDS011;2218;51.408;7.208;2023-06-14T01:58:43;2.10;;;2.00;;
4409;SDS011;2218;51.408;7.208;2023-06-14T02:01:10;1.87;;;1.77;;
4409;SDS011;2218;51.408;7.208;2023-06-14T02:03:37;2.00;;;1.90;;
4409;SDS011;2218;51.408;7.208;2023-06-14T02:06:04;2.00;;;1.90;;
4409;SDS011;2218;51.408;7.208;2023-06-14T02:08:32;1.87;;;1.77;;
4409;SDS011;2218;51.408;7.208;2023-06-14T02:10:59;2.03;;;1.93;;
4409;SDS011;2218;51.408;7.208;2023-06-14T02:13:27;1.90;;;1.70;;
4409;SDS011;2218;51.408;7.208;2023-06-14T02:15:55;2.00;;;1.90;;
4409;SDS011;2218;51.408;7.208;2023-06-14T02:18:22;1.80;;;1.70;;
4409;SDS011;2218;51.408;7.208;2023-06-14T02:20:49;1.90;;;1.80;;
4409;SDS011;2218;51.408;7.208;2023-06-14T02:23:16;1.60;;;1.50;;
4409;SDS011;2218;51.408;7.208;2023-06-14T02:25:43;1.50;;;1.40;;
4409;SDS011;2218;51.408;7.208;2023-06-14T02:28:11;1.80;;;1.70;;
4409;SDS011;2218;51.408;7.208;2023-06-14T02:30:39;1.80;;;1.70;;
4409;SDS011;2218;51.408;7.208;2023-06-14T02:33:06;1.90;;;1.80;;
4409;SDS011;2218;51.408;7.208;2023-06-14T02:35:39;1.77;;;1.67;;
4409;SDS011;2218;51.408;7.208;2023-06-14T02:38:06;1.83;;;1.73;;
4409;SDS011;2218;51.408;7.208;2023-06-14T02:40:33;1.70;;;1.60;;
4409;SDS011;2218;51.408;7.208;2023-06-14T02:43:00;1.80;;;1.70;;
4409;SDS011;2218;51.408;7.208;2023-06-14T02:45:27;1.90;;;1.80;;
4409;SDS011;2218;51.408;7.208;2023-06-14T02:47:55;2.03;;;1.93;;
4409;SDS011;2218;51.408;7.208;2023-06-14T02:50:22;1.80;;;1.70;;
4409;SDS011;2218;51.408;7.208;2023-06-14T02:52:49;2.20;;;1.70;;
4409;SDS011;2218;51.408;7.208;2023-06-14T02:55:17;1.97;;;1.87;;
4409;SDS011;2218;51.408;7.208;2023-06-14T02:57:45;1.83;;;1.73;;
4409;SDS011;2218;51.408;7.208;2023-06-14T03:00:13;1.70;;;1.60;;
4409;SDS011;2218;51.408;7.208;2023-06-14T03:02:42;1.77;;;1.67;;
4409;SDS011;2218;51.408;7.208;2023-06-14T03:05:11;1.80;;;1.70;;
4409;SDS011;2218;51.408;7.208;2023-06-14T03:07:39;1.80;;;1.70;;
4409;SDS011;2218;51.408;7.208;2023-06-14T03:10:10;1.70;;;1.60;;
4409;SDS011;2218;51.408;7.208;2023-06-14T03:12:39;2.20;;;2.00;;
4409;SDS011;2218;51.408;7.208;2023-06-14T03:15:08;1.67;;;1.57;;
4409;SDS011;2218;51.408;7.208;2023-06-14T03:17:39;2.00;;;1.90;;
4409;SDS011;2218;51.408;7.208;2023-06-14T03:20:13;2.20;;;2.10;;
4409;SDS011;2218;51.408;7.208;2023-06-14T03:22:40;1.90;;;1.80;;
4409;SDS011;2218;51.408;7.208;2023-06-14T03:25:11;2.70;;;2.00;;
4409;SDS011;2218;51.408;7.208;2023-06-14T03:27:39;1.80;;;1.70;;
4409;SDS011;2218;51.408;7.208;2023-06-14T03:30:06;1.77;;;1.67;;
4409;SDS011;2218;51.408;7.208;2023-06-14T03:32:35;1.63;;;1.53;;
4409;SDS011;2218;51.408;7.208;2023-06-14T03:35:03;2.27;;;2.17;;
4409;SDS011;2218;51.408;7.208;2023-06-14T03:37:32;1.77;;;1.67;;
4409;SDS011;2218;51.408;7.208;2023-06-14T03:40:00;1.80;;;1.70;;
4409;SDS011;2218;51.408;7.208;2023-06-14T03:42:33;1.60;;;1.50;;
4409;SDS011;2218;51.408;7.208;2023-06-14T03:45:00;1.80;;;1.70;;
4409;SDS011;2218;51.408;7.208;2023-06-14T03:47:27;1.90;;;1.80;;
4409;SDS011;2218;51.408;7.208;2023-06-14T03:49:54;1.90;;;1.80;;
4409;SDS011;2218;51.408;7.208;2023-06-14T03:52:22;1.80;;;1.70;;
4409;SDS011;2218;51.408;7.208;2023-06-14T03:54:50;2.10;;;2.00;;
4409;SDS011;2218;51.408;7.208;2023-06-14T03:57:17;1.80;;;1.70;;
4409;SDS011;2218;51.408;7.208;2023-06-14T03:59:47;1.70;;;1.60;;
4409;SDS011;2218;51.408;7.208;2023-06-14T04:02:14;2.33;;;2.07;;
4409;SDS011;2218;51.408;7.208;2023-06-14T04:04:43;1.83;;;1.73;;
4409;SDS011;2218;51.408;7.208;2023-06-14T04:07:11;2.27;;;1.80;;
4409;SDS011;2218;51.408;7.208;2023-06-14T04:09:38;2.07;;;1.97;;
4409;SDS011;2218;51.408;7.208;2023-06-14T04:12:07;2.10;;;2.00;;
4409;SDS011;2218;51.408;7.208;2023-06-14T04:14:36;2.00;;;1.90;;
4409;SDS011;2218;51.408;7.208;2023-06-14T04:17:04;2.60;;;1.90;;
4409;SDS011;2218;51.408;7.208;2023-06-14T04:19:31;2.00;;;1.90;;
4409;SDS011;2218;51.408;7.208;2023-06-14T04:21:59;1.63;;;1.53;;
4409;SDS011;2218;51.408;7.208;2023-06-14T04:24:28;1.60;;;1.50;;
4409;SDS011;2218;51.408;7.208;2023-06-14T04:26:57;1.63;;;1.53;;
4409;SDS011;2218;51.408;7.208;2023-06-14T04:29:28;1.63;;;1.53;;
4409;SDS011;2218;51.408;7.208;2023-06-14T04:32:01;1.70;;;1.53;;
4409;SDS011;2218;51.408;7.208;2023-06-14T04:34:28;1.50;;;1.40;;
4409;SDS011;2218;51.408;7.208;2023-06-14T04:36:57;2.07;;;1.97;;
4409;SDS011;2218;51.408;7.208;2023-06-14T04:39:35;1.70;;;1.60;;
4409;SDS011;2218;51.408;7.208;2023-06-14T04:42:03;1.83;;;1.73;;
4409;SDS011;2218;51.408;7.208;2023-06-14T04:44:34;1.60;;;1.50;;
4409;SDS011;2218;51.408;7.208;2023-06-14T04:47:03;1.57;;;1.47;;
4409;SDS011;2218;51.408;7.208;2023-06-14T04:49:31;1.63;;;1.53;;
4409;SDS011;2218;51.408;7.208;2023-06-14T04:51:59;1.80;;;1.70;;
4409;SDS011;2218;51.408;7.208;2023-06-14T04:54:46;1.80;;;1.70;;
4409;SDS011;2218;51.408;7.208;2023-06-14T04:57:18;4.07;;;1.77;;
4409;SDS011;2218;51.408;7.208;2023-06-14T04:59:49;2.03;;;1.93;;
4409;SDS011;2218;51.408;7.208;2023-06-14T05:02:21;1.63;;;1.50;;
4409;SDS011;2218;51.408;7.208;2023-06-14T05:04:49;1.73;;;1.63;;
4409;SDS011;2218;51.408;7.208;2023-06-14T05:07:17;1.60;;;1.50;;
4409;SDS011;2218;51.408;7.208;2023-06-14T05:09:46;1.70;;;1.60;;
4409;SDS011;2218;51.408;7.208;2023-06-14T05:12:13;1.50;;;1.40;;
4409;SDS011;2218;51.408;7.208;2023-06-14T05:14:43;1.67;;;1.57;;
4409;SDS011;2218;51.408;7.208;2023-06-14T05:17:12;1.67;;;1.57;;
4409;SDS011;2218;51.408;7.208;2023-06-14T05:19:39;1.63;;;1.53;;
4409;SDS011;2218;51.408;7.208;2023-06-14T05:22:06;2.67;;;1.60;;
4409;SDS011;2218;51.408;7.208;2023-06-14T05:24:33;1.53;;;1.43;;
4409;SDS011;2218;51.408;7.208;2023-06-14T05:27:00;1.60;;;1.50;;
4409;SDS011;2218;51.408;7.208;2023-06-14T05:29:27;1.73;;;1.63;;
4409;SDS011;2218;51.408;7.208;2023-06-14T05:31:54;1.70;;;1.60;;
4409;SDS011;2218;51.408;7.208;2023-06-14T05:34:22;2.00;;;1.90;;
4409;SDS011;2218;51.408;7.208;2023-06-14T05:36:49;1.50;;;1.40;;
4409;SDS011;2218;51.408;7.208;2023-06-14T05:39:16;1.63;;;1.53;;
4409;SDS011;2218;51.408;7.208;2023-06-14T05:41:43;1.77;;;1.50;;
4409;SDS011;2218;51.408;7.208;2023-06-14T05:44:10;1.80;;;1.70;;
4409;SDS011;2218;51.408;7.208;2023-06-14T05:46:37;1.40;;;1.30;;
4409;SDS011;2218;51.408;7.208;2023-06-14T05:49:05;1.77;;;1.67;;
4409;SDS011;2218;51.408;7.208;2023-06-14T05:51:33;1.73;;;1.63;;
4409;SDS011;2218;51.408;7.208;2023-06-14T05:54:01;1.73;;;1.63;;
4409;SDS011;2218;51.408;7.208;2023-06-14T05:56:28;1.47;;;1.37;;
4409;SDS011;2218;51.408;7.208;2023-06-14T05:58:55;1.50;;;1.40;;
4409;SDS011;2218;51.408;7.208;2023-06-14T06:01:22;1.60;;;1.50;;
4409;SDS011;2218;51.408;7.208;2023-06-14T06:03:50;1.63;;;1.53;;
4409;SDS011;2218;51.408;7.208;2023-06-14T06:06:17;1.70;;;1.60;;
4409;SDS011;2218;51.408;7.208;2023-06-14T06:08:45;1.50;;;1.40;;
4409;SDS011;2218;51.408;7.208;2023-06-14T06:11:13;1.43;;;1.33;;
4409;SDS011;2218;51.408;7.208;2023-06-14T06:13:40;1.63;;;1.53;;
4409;SDS011;2218;51.408;7.208;2023-06-14T06:16:07;1.50;;;1.40;;
4409;SDS011;2218;51.408;7.208;2023-06-14T06:18:34;1.50;;;1.40;;
4409;SDS011;2218;51.408;7.208;2023-06-14T06:21:01;1.60;;;1.50;;
4409;SDS011;2218;51.408;7.208;2023-06-14T06:23:30;1.93;;;1.83;;
4409;SDS011;2218;51.408;7.208;2023-06-14T06:25:58;1.60;;;1.50;;
4409;SDS011;2218;51.408;7.208;2023-06-14T06:28:25;2.67;;;1.70;;
4409;SDS011;2218;51.408;7.208;2023-06-14T06:30:52;1.30;;;1.20;;
4409;SDS011;2218;51.408;7.208;2023-06-14T06:33:19;1.67;;;1.57;;
4409;SDS011;2218;51.408;7.208;2023-06-14T06:35:46;1.80;;;1.70;;
4409;SDS011;2218;51.408;7.208;2023-06-14T06:38:13;1.53;;;1.43;;
4409;SDS011;2218;51.408;7.208;2023-06-14T06:40:40;1.50;;;1.40;;
4409;SDS011;2218;51.408;7.208;2023-06-14T06:43:08;1.57;;;1.47;;
4409;SDS011;2218;51.408;7.208;2023-06-14T06:45:43;1.70;;;1.60;;
4409;SDS011;2218;51.408;7.208;2023-06-14T06:48:10;1.60;;;1.50;;
4409;SDS011;2218;51.408;7.208;2023-06-14T06:50:37;1.30;;;1.20;;
4409;SDS011;2218;51.408;7.208;2023-06-14T06:53:04;3.27;;;1.70;;
4409;SDS011;2218;51.408;7.208;2023-06-14T06:55:31;8.10;;;1.80;;
4409;SDS011;2218;51.408;7.208;2023-06-14T06:57:58;4.73;;;2.70;;
4409;SDS011;2218;51.408;7.208;2023-06-14T07:00:27;4.70;;;2.53;;
4409;SDS011;2218;51.408;7.208;2023-06-14T07:02:54;3.20;;;2.40;;
4409;SDS011;2218;51.408;7.208;2023-06-14T07:05:22;18.60;;;2.93;;
4409;SDS011;2218;51.408;7.208;2023-06-14T07:07:49;7.33;;;2.00;;
4409;SDS011;2218;51.408;7.208;2023-06-14T07:10:16;4.13;;;2.27;;
4409;SDS011;2218;51.408;7.208;2023-06-14T07:12:43;7.03;;;2.53;;
4409;SDS011;2218;51.408;7.208;2023-06-14T07:15:11;2.63;;;2.43;;
4409;SDS011;2218;51.408;7.208;2023-06-14T07:17:39;2.40;;;2.07;;
4409;SDS011;2218;51.408;7.208;2023-06-14T07:20:08;7.33;;;2.70;;
4409;SDS011;2218;51.408;7.208;2023-06-14T07:22:38;2.97;;;2.67;;
4409;SDS011;2218;51.408;7.208;2023-06-14T07:25:07;6.60;;;2.67;;
4409;SDS011;2218;51.408;7.208;2023-06-14T07:27:37;3.73;;;2.47;;
4409;SDS011;2218;51.408;7.208;2023-06-14T07:30:05;5.67;;;2.40;;
4409;SDS011;2218;51.408;7.208;2023-06-14T07:32:34;5.70;;;2.30;;
4409;SDS011;2218;51.408;7.208;2023-06-14T07:35:02;3.00;;;2.10;;
4409;SDS011;2218;51.408;7.208;2023-06-14T07:37:29;2.20;;;1.80;;
4409;SDS011;2218;51.408;7.208;2023-06-14T07:39:56;5.83;;;2.00;;
4409;SDS011;2218;51.408;7.208;2023-06-14T07:42:23;4.03;;;2.47;;
4409;SDS011;2218;51.408;7.208;2023-06-14T07:44:50;4.00;;;2.20;;
4409;SDS011;2218;51.408;7.208;2023-06-14T07:47:19;6.00;;;2.30;;
4409;SDS011;2218;51.408;7.208;2023-06-14T07:49:46;3.90;;;2.13;;
4409;SDS011;2218;51.408;7.208;2023-06-14T07:52:14;2.30;;;2.10;;
4409;SDS011;2218;51.408;7.208;2023-06-14T07:54:41;2.13;;;2.03;;
4409;SDS011;2218;51.408;7.208;2023-06-14T07:57:08;2.40;;;2.10;;
4409;SDS011;2218;51.408;7.208;2023-06-14T07:59:35;5.90;;;2.87;;
4409;SDS011;2218;51.408;7.208;2023-06-14T08:02:02;2.30;;;2.10;;
4409;SDS011;2218;51.408;7.208;2023-06-14T08:04:29;2.10;;;2.00;;
4409;SDS011;2218;51.408;7.208;2023-06-14T08:06:58;5.87;;;2.53;;
4409;SDS011;2218;51.408;7.208;2023-06-14T08:09:26;4.67;;;2.10;;
4409;SDS011;2218;51.408;7.208;2023-06-14T08:11:54;3.67;;;2.33;;
4409;SDS011;2218;51.408;7.208;2023-06-14T08:14:21;2.50;;;2.03;;
4409;SDS011;2218;51.408;7.208;2023-06-14T08:16:48;1.90;;;1.80;;
4409;SDS011;2218;51.408;7.208;2023-06-14T08:19:15;3.47;;;1.90;;
4409;SDS011;2218;51.408;7.208;2023-06-14T08:21:43;4.27;;;1.90;;
4409;SDS011;2218;51.408;7.208;2023-06-14T08:24:11;1.77;;;1.67;;
4409;SDS011;2218;51.408;7.208;2023-06-14T08:26:40;3.60;;;2.07;;
4409;SDS011;2218;51.408;7.208;2023-06-14T08:29:07;3.73;;;1.90;;
4409;SDS011;2218;51.408;7.208;2023-06-14T08:31:34;2.10;;;1.97;;
4409;SDS011;2218;51.408;7.208;2023-06-14T08:34:01;1.83;;;1.70;;
4409;SDS011;2218;51.408;7.208;2023-06-14T08:36:28;1.93;;;1.73;;
4409;SDS011;2218;51.408;7.208;2023-06-14T08:38:55;1.60;;;1.50;;
4409;SDS011;2218;51.408;7.208;2023-06-14T08:41:22;2.10;;;1.90;;
4409;SDS011;2218;51.408;7.208;2023-06-14T08:43:51;4.10;;;1.70;;
4409;SDS011;2218;51.408;7.208;2023-06-14T08:46:18;2.30;;;1.43;;
4409;SDS011;2218;51.408;7.208;2023-06-14T08:48:46;2.10;;;1.80;;
4409;SDS011;2218;51.408;7.208;2023-06-14T08:51:16;2.23;;;1.77;;
4409;SDS011;2218;51.408;7.208;2023-06-14T08:53:47;3.10;;;1.83;;
4409;SDS011;2218;51.408;7.208;2023-06-14T08:56:23;3.60;;;2.00;;
4409;SDS011;2218;51.408;7.208;2023-06-14T08:58:54;2.30;;;1.70;;
4409;SDS011;2218;51.408;7.208;2023-06-14T09:01:22;3.57;;;1.50;;
4409;SDS011;2218;51.408;7.208;2023-06-14T09:03:50;1.73;;;1.63;;
4409;SDS011;2218;51.408;7.208;2023-06-14T09:06:20;2.90;;;1.23;;
4409;SDS011;2218;51.408;7.208;2023-06-14T09:08:48;3.20;;;1.60;;
4409;SDS011;2218;51.408;7.208;2023-06-14T09:11:16;1.53;;;1.43;;
4409;SDS011;2218;51.408;7.208;2023-06-14T09:13:44;2.40;;;1.77;;
4409;SDS011;2218;51.408;7.208;2023-06-14T09:16:14;1.70;;;1.60;;
4409;SDS011;2218;51.408;7.208;2023-06-14T09:18:41;1.73;;;1.60;;
4409;SDS011;2218;51.408;7.208;2023-06-14T09:21:13;2.00;;;1.90;;
4409;SDS011;2218;51.408;7.208;2023-06-14T09:23:41;1.70;;;1.60;;
4409;SDS011;2218;51.408;7.208;2023-06-14T09:26:11;4.33;;;1.53;;
4409;SDS011;2218;51.408;7.208;2023-06-14T09:28:43;3.30;;;1.60;;
4409;SDS011;2218;51.408;7.208;2023-06-14T09:31:14;3.80;;;1.63;;
4409;SDS011;2218;51.408;7.208;2023-06-14T09:33:43;1.47;;;1.37;;
4409;SDS011;2218;51.408;7.208;2023-06-14T09:36:14;3.00;;;1.90;;
4409;SDS011;2218;51.408;7.208;2023-06-14T09:38:46;1.60;;;1.50;;
4409;SDS011;2218;51.408;7.208;2023-06-14T09:41:18;4.50;;;1.40;;
4409;SDS011;2218;51.408;7.208;2023-06-14T09:43:46;1.70;;;1.50;;
4409;SDS011;2218;51.408;7.208;2023-06-14T09:46:16;1.50;;;1.40;;
4409;SDS011;2218;51.408;7.208;2023-06-14T09:48:44;2.60;;;1.60;;
4409;SDS011;2218;51.408;7.208;2023-06-14T09:51:11;7.03;;;1.60;;
4409;SDS011;2218;51.408;7.208;2023-06-14T09:53:43;1.40;;;1.30;;
4409;SDS011;2218;51.408;7.208;2023-06-14T09:56:12;1.30;;;1.20;;
4409;SDS011;2218;51.408;7.208;2023-06-14T09:58:44;1.80;;;1.40;;
4409;SDS011;2218;51.408;7.208;2023-06-14T10:01:11;1.47;;;1.37;;
4409;SDS011;2218;51.408;7.208;2023-06-14T10:03:41;1.33;;;1.23;;
4409;SDS011;2218;51.408;7.208;2023-06-14T10:06:10;1.30;;;1.20;;
4409;SDS011;2218;51.408;7.208;2023-06-14T10:08:38;2.43;;;1.40;;
4409;SDS011;2218;51.408;7.208;2023-06-14T10:11:06;4.37;;;1.60;;
4409;SDS011;2218;51.408;7.208;2023-06-14T10:13:34;8.13;;;1.53;;
4409;SDS011;2218;51.408;7.208;2023-06-14T10:16:04;6.60;;;1.80;;
4409;SDS011;2218;51.408;7.208;2023-06-14T10:18:42;2.33;;;1.50;;
4409;SDS011;2218;51.408;7.208;2023-06-14T10:21:21;1.63;;;1.53;;
4409;SDS011;2218;51.408;7.208;2023-06-14T10:24:03;2.00;;;1.20;;
4409;SDS011;2218;51.408;7.208;2023-06-14T10:26:39;1.47;;;1.20;;
4409;SDS011;2218;51.408;7.208;2023-06-14T10:29:17;3.00;;;1.40;;
4409;SDS011;2218;51.408;7.208;2023-06-14T10:31:45;1.60;;;1.50;;
4409;SDS011;2218;51.408;7.208;2023-06-14T10:34:22;1.85;;;1.75;;
4409;SDS011;2218;51.408;7.208;2023-06-14T10:37:00;2.07;;;1.40;;
4409;SDS011;2218;51.408;7.208;2023-06-14T10:39:30;5.07;;;1.70;;
4409;SDS011;2218;51.408;7.208;2023-06-14T10:41:58;6.33;;;1.33;;
4409;SDS011;2218;51.408;7.208;2023-06-14T10:44:33;4.30;;;1.63;;
4409;SDS011;2218;51.408;7.208;2023-06-14T10:47:24;2.00;;;1.40;;
4409;SDS011;2218;51.408;7.208;2023-06-14T10:49:55;3.25;;;1.40;;
4409;SDS011;2218;51.408;7.208;2023-06-14T10:52:31;10.13;;;1.60;;
4409;SDS011;2218;51.408;7.208;2023-06-14T10:55:01;4.50;;;1.70;;
4409;SDS011;2218;51.408;7.208;2023-06-14T10:57:38;3.77;;;1.43;;
4409;SDS011;2218;51.408;7.208;2023-06-14T11:00:07;2.93;;;1.33;;
4409;SDS011;2218;51.408;7.208;2023-06-14T11:02:51;3.93;;;1.07;;
4409;SDS011;2218;51.408;7.208;2023-06-14T11:05:54;2.87;;;1.40;;
4409;SDS011;2218;51.408;7.208;2023-06-14T11:08:27;11.97;;;1.70;;
4409;SDS011;2218;51.408;7.208;2023-06-14T11:11:29;1.20;;;1.10;;
4409;SDS011;2218;51.408;7.208;2023-06-14T11:14:00;3.63;;;1.73;;
4409;SDS011;2218;51.408;7.208;2023-06-14T11:16:28;3.20;;;1.30;;
4409;SDS011;2218;51.408;7.208;2023-06-14T11:18:57;1.40;;;1.30;;
4409;SDS011;2218;51.408;7.208;2023-06-14T11:21:25;1.73;;;1.20;;
4409;SDS011;2218;51.408;7.208;2023-06-14T11:23:56;1.67;;;1.30;;
4409;SDS011;2218;51.408;7.208;2023-06-14T11:26:27;1.77;;;1.40;;
4409;SDS011;2218;51.408;7.208;2023-06-14T11:28:56;1.40;;;1.30;;
4409;SDS011;2218;51.408;7.208;2023-06-14T11:31:24;2.07;;;1.40;;
4409;SDS011;2218;51.408;7.208;2023-06-14T11:33:53;10.03;;;1.60;;
4409;SDS011;2218;51.408;7.208;2023-06-14T11:36:21;9.00;;;1.37;;
4409;SDS011;2218;51.408;7.208;2023-06-14T11:38:50;1.20;;;1.10;;
4409;SDS011;2218;51.408;7.208;2023-06-14T11:41:25;1.60;;;1.50;;
4409;SDS011;2218;51.408;7.208;2023-06-14T11:43:59;1.80;;;1.67;;
4409;SDS011;2218;51.408;7.208;2023-06-14T11:46:27;1.40;;;1.30;;
4409;SDS011;2218;51.408;7.208;2023-06-14T11:48:54;6.20;;;1.50;;
4409;SDS011;2218;51.408;7.208;2023-06-14T11:51:21;1.30;;;1.20;;
4409;SDS011;2218;51.408;7.208;2023-06-14T11:53:50;1.50;;;1.10;;
4409;SDS011;2218;51.408;7.208;2023-06-14T11:56:17;1.10;;;1.00;;
4409;SDS011;2218;51.408;7.208;2023-06-14T11:58:45;1.30;;;1.20;;
4409;SDS011;2218;51.408;7.208;2023-06-14T12:01:14;3.30;;;1.20;;
4409;SDS011;2218;51.408;7.208;2023-06-14T12:03:47;1.83;;;1.20;;
4409;SDS011;2218;51.408;7.208;2023-06-14T12:06:15;1.87;;;1.17;;
4409;SDS011;2218;51.408;7.208;2023-06-14T12:08:43;1.40;;;1.30;;
4409;SDS011;2218;51.408;7.208;2023-06-14T12:11:12;6.17;;;1.57;;
4409;SDS011;2218;51.408;7.208;2023-06-14T12:13:40;1.70;;;1.60;;
4409;SDS011;2218;51.408;7.208;2023-06-14T12:16:08;1.87;;;1.73;;
4409;SDS011;2218;51.408;7.208;2023-06-14T12:18:38;3.37;;;2.33;;
4409;SDS011;2218;51.408;7.208;2023-06-14T12:21:08;2.70;;;1.90;;
4409;SDS011;2218;51.408;7.208;2023-06-14T12:23:42;2.03;;;1.80;;
4409;SDS011;2218;51.408;7.208;2023-06-14T12:26:16;7.00;;;1.80;;
4409;SDS011;2218;51.408;7.208;2023-06-14T12:28:45;2.00;;;1.90;;
4409;SDS011;2218;51.408;7.208;2023-06-14T12:31:14;2.70;;;2.00;;
4409;SDS011;2218;51.408;7.208;2023-06-14T12:33:44;1.90;;;1.80;;
4409;SDS011;2218;51.408;7.208;2023-06-14T12:36:13;6.63;;;1.83;;
4409;SDS011;2218;51.408;7.208;2023-06-14T12:38:42;3.13;;;1.80;;
4409;SDS011;2218;51.408;7.208;2023-06-14T12:41:10;2.27;;;1.60;;
4409;SDS011;2218;51.408;7.208;2023-06-14T12:43:41;5.47;;;2.00;;
4409;SDS011;2218;51.408;7.208;2023-06-14T12:46:08;1.70;;;1.60;;
4409;SDS011;2218;51.408;7.208;2023-06-14T12:48:35;3.00;;;2.33;;
4409;SDS011;2218;51.408;7.208;2023-06-14T12:51:02;1.97;;;1.83;;
4409;SDS011;2218;51.408;7.208;2023-06-14T12:53:29;2.73;;;1.80;;
4409;SDS011;2218;51.408;7.208;2023-06-14T12:55:56;1.70;;;1.60;;
4409;SDS011;2218;51.408;7.208;2023-06-14T12:58:23;2.67;;;1.90;;
4409;SDS011;2218;51.408;7.208;2023-06-14T13:00:51;2.33;;;1.93;;
4409;SDS011;2218;51.408;7.208;2023-06-14T13:03:18;4.80;;;1.70;;
4409;SDS011;2218;51.408;7.208;2023-06-14T13:05:45;2.17;;;1.97;;
4409;SDS011;2218;51.408;7.208;2023-06-14T13:08:12;5.00;;;2.10;;
4409;SDS011;2218;51.408;7.208;2023-06-14T13:10:39;1.70;;;1.60;;
4409;SDS011;2218;51.408;7.208;2023-06-14T13:13:06;4.00;;;1.97;;
4409;SDS011;2218;51.408;7.208;2023-06-14T13:15:33;7.30;;;2.00;;
4409;SDS011;2218;51.408;7.208;2023-06-14T13:18:02;4.60;;;1.83;;
4409;SDS011;2218;51.408;7.208;2023-06-14T13:20:29;7.33;;;2.10;;
4409;SDS011;2218;51.408;7.208;2023-06-14T13:22:56;1.80;;;1.40;;
4409;SDS011;2218;51.408;7.208;2023-06-14T13:25:23;2.40;;;1.60;;
4409;SDS011;2218;51.408;7.208;2023-06-14T13:27:50;7.30;;;1.77;;
4409;SDS011;2218;51.408;7.208;2023-06-14T13:30:17;5.37;;;1.60;;
4409;SDS011;2218;51.408;7.208;2023-06-14T13:32:44;4.13;;;2.00;;
4409;SDS011;2218;51.408;7.208;2023-06-14T13:35:13;1.93;;;1.53;;
4409;SDS011;2218;51.408;7.208;2023-06-14T13:37:40;3.53;;;2.07;;
4409;SDS011;2218;51.408;7.208;2023-06-14T13:40:07;2.10;;;1.50;;
4409;SDS011;2218;51.408;7.208;2023-06-14T13:42:34;2.10;;;1.70;;
4409;SDS011;2218;51.408;7.208;2023-06-14T13:45:02;1.67;;;1.50;;
4409;SDS011;2218;51.408;7.208;2023-06-14T13:47:30;1.50;;;1.40;;
4409;SDS011;2218;51.408;7.208;2023-06-14T13:49:58;2.77;;;1.57;;
4409;SDS011;2218;51.408;7.208;2023-06-14T13:52:26;1.30;;;1.20;;
4409;SDS011;2218;51.408;7.208;2023-06-14T13:54:53;1.60;;;1.50;;
4409;SDS011;2218;51.408;7.208;2023-06-14T13:57:20;7.30;;;1.53;;
4409;SDS011;2218;51.408;7.208;2023-06-14T13:59:47;1.70;;;1.60;;
4409;SDS011;2218;51.408;7.208;2023-06-14T14:02:14;1.47;;;1.37;;
4409;SDS011;2218;51.408;7.208;2023-06-14T14:04:42;1.40;;;1.30;;
4409;SDS011;2218;51.408;7.208;2023-06-14T14:07:08;2.17;;;1.80;;
4409;SDS011;2218;51.408;7.208;2023-06-14T14:09:37;1.70;;;1.60;;
4409;SDS011;2218;51.408;7.208;2023-06-14T14:12:05;1.40;;;1.30;;
4409;SDS011;2218;51.408;7.208;2023-06-14T14:14:32;2.80;;;1.60;;
4409;SDS011;2218;51.408;7.208;2023-06-14T14:16:59;3.23;;;2.13;;
4409;SDS011;2218;51.408;7.208;2023-06-14T14:19:26;1.47;;;1.37;;
4409;SDS011;2218;51.408;7.208;2023-06-14T14:21:53;1.77;;;1.67;;
4409;SDS011;2218;51.408;7.208;2023-06-14T14:24:20;1.53;;;1.43;;
4409;SDS011;2218;51.408;7.208;2023-06-14T14:26:48;1.47;;;1.37;;
4409;SDS011;2218;51.408;7.208;2023-06-14T14:29:18;4.20;;;1.40;;
4409;SDS011;2218;51.408;7.208;2023-06-14T14:31:46;2.50;;;1.30;;
4409;SDS011;2218;51.408;7.208;2023-06-14T14:34:13;1.37;;;1.27;;
4409;SDS011;2218;51.408;7.208;2023-06-14T14:36:40;1.43;;;1.33;;
4409;SDS011;2218;51.408;7.208;2023-06-14T14:39:07;4.30;;;1.63;;
4409;SDS011;2218;51.408;7.208;2023-06-14T14:41:34;1.50;;;1.40;;
4409;SDS011;2218;51.408;7.208;2023-06-14T14:44:04;2.30;;;1.43;;
4409;SDS011;2218;51.408;7.208;2023-06-14T14:46:31;2.80;;;1.53;;
4409;SDS011;2218;51.408;7.208;2023-06-14T14:48:59;2.30;;;1.30;;
4409;SDS011;2218;51.408;7.208;2023-06-14T14:51:26;1.53;;;1.30;;
4409;SDS011;2218;51.408;7.208;2023-06-14T14:53:53;1.40;;;1.30;;
4409;SDS011;2218;51.408;7.208;2023-06-14T14:56:20;2.70;;;1.60;;
4409;SDS011;2218;51.408;7.208;2023-06-14T14:58:48;2.37;;;1.20;;
4409;SDS011;2218;51.408;7.208;2023-06-14T15:01:17;1.40;;;1.23;;
4409;SDS011;2218;51.408;7.208;2023-06-14T15:03:44;1.73;;;1.63;;
4409;SDS011;2218;51.408;7.208;2023-06-14T15:06:11;1.40;;;1.30;;
4409;SDS011;2218;51.408;7.208;2023-06-14T15:08:38;2.23;;;1.57;;
4409;SDS011;2218;51.408;7.208;2023-06-14T15:11:05;1.50;;;1.40;;
4409;SDS011;2218;51.408;7.208;2023-06-14T15:13:32;2.70;;;1.50;;
4409;SDS011;2218;51.408;7.208;2023-06-14T15:15:59;1.80;;;1.70;;
4409;SDS011;2218;51.408;7.208;2023-06-14T15:18:27;1.23;;;1.13;;
4409;SDS011;2218;51.408;7.208;2023-06-14T15:20:54;1.50;;;1.40;;
4409;SDS011;2218;51.408;7.208;2023-06-14T15:23:21;1.90;;;1.80;;
4409;SDS011;2218;51.408;7.208;2023-06-14T15:25:48;3.23;;;1.43;;